createdAt,value
2022-08-07T00:02:39.939Z,18.70
2022-08-07T00:05:00.360Z,18.70
2022-08-07T00:07:28.865Z,18.70
2022-08-07T00:10:26.156Z,18.60
2022-08-07T00:13:00.294Z,18.60
2022-08-07T00:15:37.768Z,18.60
2022-08-07T00:18:19.401Z,18.60
2022-08-07T00:20:50.403Z,18.60
2022-08-07T00:23:21.393Z,18.60
2022-08-07T00:25:52.494Z,18.50
2022-08-07T00:28:33.561Z,18.50
2022-08-07T00:31:05.934Z,18.40
2022-08-07T00:33:35.601Z,18.50
2022-08-07T00:36:06.363Z,18.50
2022-08-07T00:38:36.732Z,18.50
2022-08-07T00:41:09.935Z,18.50
2022-08-07T00:44:01.714Z,18.40
2022-08-07T00:46:32.877Z,18.40
2022-08-07T00:49:03.008Z,18.40
2022-08-07T00:51:57.538Z,18.30
2022-08-07T00:54:22.393Z,18.30
2022-08-07T00:56:51.128Z,18.30
2022-08-07T00:59:35.515Z,18.20
2022-08-07T01:02:05.821Z,18.20
2022-08-07T01:04:43.024Z,18.20
2022-08-07T01:07:14.020Z,18.20
2022-08-07T01:10:06.557Z,18.20
2022-08-07T01:12:31.381Z,18.10
2022-08-07T01:15:00.988Z,18.10
2022-08-07T01:17:30.412Z,18.10
2022-08-07T01:20:05.524Z,18.10
2022-08-07T01:22:36.811Z,18.10
2022-08-07T01:25:40.338Z,18.10
2022-08-07T01:27:56.238Z,18.10
2022-08-07T01:30:27.249Z,18.10
2022-08-07T01:32:58.288Z,18.00
2022-08-07T01:35:26.705Z,18.00
2022-08-07T01:38:25.628Z,18.10
2022-08-07T01:40:56.579Z,18.00
2022-08-07T01:43:25.942Z,18.00
2022-08-07T01:45:55.537Z,18.00
2022-08-07T01:48:30.384Z,18.00
2022-08-07T01:51:24.662Z,17.90
2022-08-07T01:54:11.802Z,17.90
2022-08-07T01:56:49.786Z,18.00
2022-08-07T01:59:31.127Z,17.90
2022-08-07T02:02:07.027Z,17.90
2022-08-07T02:04:56.148Z,18.00
2022-08-07T02:07:44.667Z,17.90
2022-08-07T02:10:25.639Z,17.90
2022-08-07T02:12:54.850Z,17.90
2022-08-07T02:15:28.281Z,17.80
2022-08-07T02:17:59.798Z,17.80
2022-08-07T02:20:31.390Z,17.80
2022-08-07T02:23:04.134Z,17.70
2022-08-07T02:26:31.341Z,17.70
2022-08-07T02:28:29.811Z,17.70
2022-08-07T02:31:00.197Z,17.70
2022-08-07T02:34:01.912Z,17.60
2022-08-07T02:36:33.049Z,17.60
2022-08-07T02:39:16.066Z,17.60
2022-08-07T02:41:54.400Z,17.60
2022-08-07T02:44:27.521Z,17.50
2022-08-07T02:47:02.774Z,17.40
2022-08-07T02:49:56.252Z,17.30
2022-08-07T02:52:32.024Z,17.30
2022-08-07T02:55:04.525Z,17.30
2022-08-07T02:57:47.629Z,17.20
2022-08-07T03:00:18.265Z,17.20
2022-08-07T03:02:54.444Z,17.20
2022-08-07T03:05:24.596Z,17.20
2022-08-07T03:08:05.301Z,17.30
2022-08-07T03:10:41.004Z,17.30
2022-08-07T03:13:19.706Z,17.30
2022-08-07T03:15:56.243Z,17.30
2022-08-07T03:18:34.554Z,17.30
2022-08-07T03:21:08.312Z,17.20
2022-08-07T03:24:20.999Z,17.20
2022-08-07T03:26:31.119Z,17.20
2022-08-07T03:29:03.008Z,17.20
2022-08-07T03:31:42.262Z,17.20
2022-08-07T03:34:18.727Z,17.20
2022-08-07T03:36:52.834Z,17.20
2022-08-07T03:39:46.240Z,17.20
2022-08-07T03:42:11.357Z,17.20
2022-08-07T03:44:42.709Z,17.10
2022-08-07T03:47:16.586Z,17.10
2022-08-07T03:49:52.148Z,17.00
2022-08-07T03:52:26.942Z,16.90
2022-08-07T03:54:57.402Z,16.80
2022-08-07T03:58:35.250Z,16.80
2022-08-07T04:00:29.389Z,16.70
2022-08-07T04:03:04.012Z,16.70
2022-08-07T04:05:41.056Z,16.60
2022-08-07T04:08:12.391Z,16.50
2022-08-07T04:10:42.191Z,16.40
2022-08-07T04:13:15.518Z,16.30
2022-08-07T04:15:45.929Z,16.10
2022-08-07T04:18:59.027Z,16.00
2022-08-07T04:21:07.427Z,15.90
2022-08-07T04:23:43.275Z,15.70
2022-08-07T04:26:28.566Z,15.60
2022-08-07T04:29:00.336Z,15.60
2022-08-07T04:31:38.915Z,15.50
2022-08-07T04:34:24.238Z,15.50
2022-08-07T04:36:55.867Z,15.50
2022-08-07T04:39:26.286Z,15.60
2022-08-07T04:41:54.799Z,15.60
2022-08-07T04:44:23.454Z,15.60
2022-08-07T04:47:04.634Z,15.60
2022-08-07T04:49:47.321Z,15.60
2022-08-07T04:52:34.470Z,15.60
2022-08-07T04:55:15.335Z,15.70
2022-08-07T04:58:11.835Z,15.80
2022-08-07T05:00:57.024Z,15.80
2022-08-07T05:03:59.825Z,15.90
2022-08-07T05:06:23.614Z,15.90
2022-08-07T05:09:03.619Z,16.00
2022-08-07T05:11:57.243Z,16.10
2022-08-07T05:14:52.167Z,16.20
2022-08-07T05:17:51.805Z,16.20
2022-08-07T05:20:12.896Z,16.40
2022-08-07T05:22:44.317Z,16.50
2022-08-07T05:25:26.296Z,16.60
2022-08-07T05:28:19.872Z,16.70
2022-08-07T05:30:50.071Z,16.80
2022-08-07T05:33:21.723Z,17.00
2022-08-07T05:35:52.368Z,17.00
2022-08-07T05:39:00.580Z,17.10
2022-08-07T05:41:14.076Z,17.20
2022-08-07T05:44:08.136Z,17.40
2022-08-07T05:46:37.616Z,17.40
2022-08-07T05:49:12.145Z,17.50
2022-08-07T05:51:46.244Z,17.60
2022-08-07T05:54:31.163Z,17.70
2022-08-07T05:57:05.185Z,17.80
2022-08-07T05:59:39.036Z,17.90
2022-08-07T06:02:29.080Z,18.00
2022-08-07T06:05:03.406Z,18.10
2022-08-07T06:08:13.137Z,18.20
2022-08-07T06:10:23.050Z,18.30
2022-08-07T06:12:51.854Z,18.40
2022-08-07T06:15:21.038Z,18.50
2022-08-07T06:17:53.518Z,18.60
2022-08-07T06:20:32.129Z,18.70
2022-08-07T06:23:46.826Z,18.80
2022-08-07T06:26:03.426Z,18.90
2022-08-07T06:28:32.327Z,19.00
2022-08-07T06:31:01.570Z,19.10
2022-08-07T06:33:33.186Z,19.20
2022-08-07T06:36:13.451Z,19.20
2022-08-07T06:38:59.662Z,19.30
2022-08-07T06:42:01.819Z,19.50
2022-08-07T06:44:27.139Z,19.60
2022-08-07T06:47:10.188Z,19.70
2022-08-07T06:49:51.086Z,19.80
2022-08-07T06:52:31.354Z,19.90
2022-08-07T06:55:33.713Z,20.00
2022-08-07T06:58:00.357Z,20.10
2022-08-07T07:00:31.560Z,20.10
2022-08-07T07:03:08.823Z,20.20
2022-08-07T07:06:04.150Z,20.30
2022-08-07T07:08:29.785Z,20.30
2022-08-07T07:11:01.252Z,20.40
2022-08-07T07:13:58.458Z,20.50
2022-08-07T07:16:33.465Z,20.60
2022-08-07T07:19:40.914Z,20.70
2022-08-07T07:22:04.885Z,20.80
2022-08-07T07:24:43.211Z,20.90
2022-08-07T07:27:35.502Z,21.10
2022-08-07T07:30:32.666Z,21.30
2022-08-07T07:33:07.832Z,21.40
2022-08-07T07:35:54.110Z,21.50
2022-08-07T07:38:26.535Z,21.70
2022-08-07T07:41:01.955Z,21.80
2022-08-07T07:44:14.901Z,21.90
2022-08-07T07:46:53.302Z,22.10
2022-08-07T07:50:35.012Z,22.20
2022-08-07T07:52:06.377Z,22.50
2022-08-07T07:54:36.523Z,22.60
2022-08-07T07:57:06.414Z,22.80
2022-08-07T07:59:51.613Z,22.90
2022-08-07T08:02:22.729Z,23.20
2022-08-07T08:05:14.512Z,23.40
2022-08-07T08:07:59.942Z,23.50
2022-08-07T08:10:38.068Z,23.60
2022-08-07T08:13:10.518Z,23.80
2022-08-07T08:15:58.526Z,24.00
2022-08-07T08:18:29.292Z,24.10
2022-08-07T08:21:01.337Z,24.30
2022-08-07T08:23:50.377Z,24.40
2022-08-07T08:26:38.047Z,24.50
2022-08-07T08:29:08.435Z,24.60
2022-08-07T08:32:17.495Z,24.80
2022-08-07T08:34:31.419Z,25.00
2022-08-07T08:37:01.042Z,25.20
2022-08-07T08:39:39.490Z,25.40
2022-08-07T08:42:26.964Z,25.60
2022-08-07T08:45:06.864Z,25.80
2022-08-07T08:47:52.553Z,26.00
2022-08-07T08:50:34.743Z,26.20
2022-08-07T08:53:16.576Z,26.40
2022-08-07T08:55:54.730Z,26.60
2022-08-07T08:58:36.912Z,26.80
2022-08-07T09:01:15.928Z,26.90
2022-08-07T09:03:57.328Z,27.10
2022-08-07T09:06:42.825Z,27.30
2022-08-07T09:09:30.098Z,27.50
2022-08-07T09:12:30.473Z,27.70
2022-08-07T09:16:22.613Z,27.80
2022-08-07T09:18:15.709Z,28.00
2022-08-07T09:21:01.077Z,28.30
2022-08-07T09:24:30.794Z,28.40
2022-08-07T09:26:31.881Z,28.60
2022-08-07T09:30:04.954Z,28.90
2022-08-07T09:32:03.366Z,29.10
2022-08-07T09:34:56.223Z,29.30
2022-08-07T09:37:48.342Z,29.50
2022-08-07T09:40:39.121Z,29.70
2022-08-07T09:43:20.512Z,29.90
2022-08-07T09:47:26.193Z,30.10
2022-08-07T09:50:00.760Z,30.20
2022-08-07T09:52:34.186Z,30.40
2022-08-07T09:55:29.935Z,30.50
2022-08-07T09:58:32.063Z,30.60
2022-08-07T10:01:52.349Z,30.70
2022-08-07T10:04:33.310Z,30.80
2022-08-07T10:07:31.772Z,31.00
2022-08-07T10:10:25.150Z,31.20
2022-08-07T10:13:54.697Z,31.40
2022-08-07T10:16:23.025Z,31.50
2022-08-07T10:19:26.868Z,31.50
2022-08-07T10:22:15.799Z,31.60
2022-08-07T10:24:57.371Z,31.70
2022-08-07T10:27:46.588Z,31.80
2022-08-07T10:30:18.991Z,31.90
2022-08-07T10:33:14.823Z,32.10
2022-08-07T10:36:10.830Z,32.30
2022-08-07T10:38:51.578Z,32.50
2022-08-07T10:41:51.307Z,32.70
2022-08-07T10:44:33.844Z,32.90
2022-08-07T10:47:16.729Z,33.10
2022-08-07T10:49:51.900Z,33.20
2022-08-07T10:52:31.880Z,33.40
2022-08-07T10:55:21.203Z,33.50
2022-08-07T10:58:14.783Z,33.60
2022-08-07T11:00:56.733Z,33.80
2022-08-07T11:03:37.190Z,33.90
2022-08-07T11:06:18.467Z,33.90
2022-08-07T11:08:55.752Z,33.90
2022-08-07T11:11:35.761Z,34.00
2022-08-07T11:14:43.826Z,34.10
2022-08-07T11:17:08.995Z,34.30
2022-08-07T11:19:46.931Z,34.40
2022-08-07T11:22:32.545Z,34.50
2022-08-07T11:25:14.845Z,34.50
2022-08-07T11:28:01.218Z,34.30
2022-08-07T11:30:41.690Z,34.10
2022-08-07T11:33:58.548Z,34.00
2022-08-07T11:36:25.094Z,33.90
2022-08-07T11:39:04.232Z,33.90
2022-08-07T11:42:00.299Z,33.90
2022-08-07T11:44:52.658Z,33.90
2022-08-07T11:47:56.516Z,34.00
2022-08-07T11:50:57.274Z,34.10
2022-08-07T11:53:43.324Z,34.00
2022-08-07T11:56:40.239Z,33.90
2022-08-07T12:00:10.083Z,33.70
2022-08-07T12:02:30.803Z,33.70
2022-08-07T12:05:15.191Z,33.60
2022-08-07T12:08:03.804Z,33.70
2022-08-07T12:10:42.206Z,33.90
2022-08-07T12:13:18.767Z,34.10
2022-08-07T12:16:08.966Z,34.30
2022-08-07T12:18:45.586Z,34.60
2022-08-07T12:21:55.739Z,34.70
2022-08-07T12:24:37.497Z,34.90
2022-08-07T12:27:16.223Z,35.10
2022-08-07T12:29:53.075Z,35.20
2022-08-07T12:32:32.055Z,35.20
2022-08-07T12:35:05.698Z,35.10
2022-08-07T12:38:09.467Z,35.10
2022-08-07T12:40:48.851Z,35.00
2022-08-07T12:44:04.354Z,34.90
2022-08-07T12:46:32.387Z,34.70
2022-08-07T12:49:25.625Z,34.80
2022-08-07T12:52:14.501Z,34.80
2022-08-07T12:54:57.319Z,34.80
2022-08-07T12:58:01.141Z,34.90
2022-08-07T13:00:41.766Z,35.00
2022-08-07T13:04:02.293Z,35.00
2022-08-07T13:07:01.187Z,35.10
2022-08-07T13:10:21.366Z,35.20
2022-08-07T13:12:39.000Z,35.20
2022-08-07T13:15:23.672Z,35.10
2022-08-07T13:18:26.262Z,35.20
2022-08-07T13:21:02.828Z,35.10
2022-08-07T13:24:04.287Z,35.10
2022-08-07T13:26:36.562Z,35.00
2022-08-07T13:29:13.693Z,35.00
2022-08-07T13:31:57.549Z,34.90
2022-08-07T13:34:36.654Z,35.00
2022-08-07T13:37:19.914Z,35.00
2022-08-07T13:40:36.340Z,35.10
2022-08-07T13:42:51.481Z,35.30
2022-08-07T13:46:11.254Z,35.30
2022-08-07T13:48:27.696Z,35.40
2022-08-07T13:51:26.870Z,35.50
2022-08-07T13:54:01.022Z,35.50
2022-08-07T13:56:36.149Z,35.40
2022-08-07T13:59:13.582Z,35.20
2022-08-07T14:02:04.069Z,35.00
2022-08-07T14:04:48.888Z,34.90
2022-08-07T14:07:22.800Z,34.90
2022-08-07T14:10:12.266Z,34.90
2022-08-07T14:12:54.861Z,35.00
2022-08-07T14:15:31.924Z,35.20
2022-08-07T14:18:27.941Z,35.30
2022-08-07T14:21:07.962Z,35.40
2022-08-07T14:24:00.369Z,35.40
2022-08-07T14:26:33.533Z,35.30
2022-08-07T14:29:08.798Z,35.20
2022-08-07T14:31:57.951Z,35.10
2022-08-07T14:34:32.235Z,34.90
2022-08-07T14:37:04.327Z,34.70
2022-08-07T14:40:15.518Z,34.50
2022-08-07T14:42:32.281Z,34.40
2022-08-07T14:45:21.612Z,34.50
2022-08-07T14:47:52.936Z,34.60
2022-08-07T14:50:37.546Z,34.70
2022-08-07T14:53:09.797Z,34.90
2022-08-07T14:55:56.260Z,34.90
2022-08-07T14:58:32.776Z,35.00
2022-08-07T15:01:21.398Z,35.00
2022-08-07T15:06:47.875Z,34.80
2022-08-07T15:09:57.862Z,34.70
2022-08-07T15:12:26.113Z,34.50
2022-08-07T15:15:07.662Z,34.40
2022-08-07T15:17:56.057Z,34.20
2022-08-07T15:20:33.926Z,34.20
2022-08-07T15:25:16.103Z,34.10
2022-08-07T15:26:21.240Z,34.10
2022-08-07T15:30:03.574Z,34.10
2022-08-07T15:31:57.809Z,34.10
2022-08-07T15:34:26.940Z,34.10
2022-08-07T15:37:04.421Z,34.00
2022-08-07T15:39:56.433Z,33.90
2022-08-07T15:42:56.303Z,33.80
2022-08-07T15:48:32.587Z,33.70
2022-08-07T15:51:08.542Z,33.70
2022-08-07T15:53:53.137Z,33.70
2022-08-07T15:56:33.271Z,33.70
2022-08-07T15:59:05.701Z,33.80
2022-08-07T16:01:38.980Z,33.80
2022-08-07T16:04:14.521Z,33.70
2022-08-07T16:06:58.884Z,33.60
2022-08-07T16:09:41.864Z,33.50
2022-08-07T16:12:37.922Z,33.30
2022-08-07T16:15:54.541Z,33.10
2022-08-07T16:18:49.614Z,32.90
2022-08-07T16:21:53.735Z,32.80
2022-08-07T16:24:34.201Z,32.60
2022-08-07T16:27:18.096Z,32.50
2022-08-07T16:30:31.566Z,32.50
2022-08-07T16:34:01.991Z,32.40
2022-08-07T16:36:20.341Z,32.30
2022-08-07T16:39:20.873Z,32.20
2022-08-07T16:42:29.697Z,32.10
2022-08-07T16:49:04.388Z,32.10
2022-08-07T16:52:01.789Z,32.00
2022-08-07T16:54:55.009Z,31.90
2022-08-07T16:58:02.781Z,31.70
2022-08-07T17:00:31.950Z,31.60
2022-08-07T17:03:18.746Z,31.50
2022-08-07T17:06:29.649Z,31.30
2022-08-07T17:09:09.140Z,31.20
2022-08-07T17:12:04.090Z,31.10
2022-08-07T17:14:49.641Z,31.00
2022-08-07T17:17:46.794Z,30.90
2022-08-07T17:20:30.109Z,30.80
2022-08-07T17:23:03.895Z,30.80
2022-08-07T17:25:54.557Z,30.80
2022-08-07T17:28:32.455Z,30.70
2022-08-07T17:31:15.929Z,30.60
2022-08-07T17:34:32.875Z,30.50
2022-08-07T17:36:57.830Z,30.50
2022-08-07T17:39:58.878Z,30.50
2022-08-07T17:42:57.981Z,30.30
2022-08-07T17:45:32.142Z,30.20
2022-08-07T17:48:11.126Z,30.10
2022-08-07T17:50:54.334Z,30.00
2022-08-07T17:54:00.983Z,29.80
2022-08-07T17:56:28.918Z,29.70
2022-08-07T17:59:02.717Z,29.60
2022-08-07T18:01:40.515Z,29.40
2022-08-07T18:04:24.746Z,29.30
2022-08-07T18:07:21.080Z,29.20
2022-08-07T18:10:06.034Z,29.10
2022-08-07T18:12:49.678Z,29.00
2022-08-07T18:15:33.078Z,28.90
2022-08-07T18:18:45.479Z,28.80
2022-08-07T18:21:30.673Z,28.70
2022-08-07T18:24:08.969Z,28.60
2022-08-07T18:27:00.679Z,28.40
2022-08-07T18:30:04.685Z,28.30
2022-08-07T18:33:23.212Z,28.20
2022-08-07T18:35:57.354Z,28.10
2022-08-07T18:38:58.481Z,28.00
2022-08-07T18:41:45.074Z,27.90
2022-08-07T18:45:39.893Z,27.80
2022-08-07T18:47:45.297Z,27.80
2022-08-07T18:50:46.438Z,27.70
2022-08-07T18:53:39.481Z,27.60
2022-08-07T18:56:19.408Z,27.60
2022-08-07T18:59:47.457Z,27.40
2022-08-07T19:02:32.725Z,27.40
2022-08-07T19:05:15.474Z,27.30
2022-08-07T19:07:59.084Z,27.20
2022-08-07T19:10:51.360Z,27.20
2022-08-07T19:13:27.417Z,27.10
2022-08-07T19:17:00.734Z,27.00
2022-08-07T19:19:01.181Z,26.90
2022-08-07T19:21:45.057Z,26.90
2022-08-07T19:24:30.855Z,26.80
2022-08-07T19:28:57.820Z,26.70
2022-08-07T19:31:06.452Z,26.60
2022-08-07T19:32:51.229Z,26.50
2022-08-07T19:35:22.460Z,26.50
2022-08-07T19:37:57.776Z,26.40
2022-08-07T19:40:31.022Z,26.30
2022-08-07T19:43:10.712Z,26.20
2022-08-07T19:46:07.486Z,26.10
2022-08-07T19:48:42.959Z,26.00
2022-08-07T19:51:20.567Z,25.90
2022-08-07T19:54:35.745Z,25.80
2022-08-07T19:57:50.932Z,25.70
2022-08-07T19:59:41.082Z,25.60
2022-08-07T20:02:19.852Z,25.50
2022-08-07T20:04:56.054Z,25.40
2022-08-07T20:07:45.955Z,25.30
2022-08-07T20:10:35.427Z,25.20
2022-08-07T20:13:22.943Z,25.10
2022-08-07T20:15:57.510Z,25.00
2022-08-07T20:18:32.537Z,24.90
2022-08-07T20:21:20.900Z,24.90
2022-08-07T20:23:54.251Z,24.80
2022-08-07T20:26:29.867Z,24.70
2022-08-07T20:29:46.691Z,24.70
2022-08-07T20:32:02.341Z,24.60
2022-08-07T20:34:50.320Z,24.60
2022-08-07T20:37:29.259Z,24.50
2022-08-07T20:40:03.987Z,24.50
2022-08-07T20:42:35.226Z,24.40
2022-08-07T20:45:33.456Z,24.30
2022-08-07T20:47:58.633Z,24.30
2022-08-07T20:50:30.549Z,24.30
2022-08-07T20:53:00.864Z,24.20
2022-08-07T20:55:32.292Z,24.10
2022-08-07T20:58:15.215Z,24.00
2022-08-07T21:00:57.754Z,24.00
2022-08-07T21:03:27.741Z,24.00
2022-08-07T21:06:00.870Z,24.00
2022-08-07T21:08:37.962Z,24.00
2022-08-07T21:11:12.410Z,24.00
2022-08-07T21:14:29.603Z,24.00
2022-08-07T21:16:56.608Z,24.00
2022-08-07T21:19:32.475Z,24.00
2022-08-07T21:22:20.210Z,24.00
2022-08-07T21:25:12.300Z,24.00
2022-08-07T21:27:53.741Z,24.00
2022-08-07T21:30:36.036Z,24.00
2022-08-07T21:33:13.714Z,24.00
2022-08-07T21:36:05.352Z,24.10
2022-08-07T21:38:45.730Z,24.10
2022-08-07T21:41:27.959Z,24.10
2022-08-07T21:44:14.722Z,24.10
2022-08-07T21:47:17.159Z,24.20
2022-08-07T21:50:02.380Z,24.10
2022-08-07T21:52:45.124Z,24.20
2022-08-07T21:55:28.369Z,24.10
2022-08-07T21:58:07.291Z,24.10
2022-08-07T22:00:39.893Z,24.00
2022-08-07T22:03:17.080Z,24.00
2022-08-07T22:05:52.623Z,23.90
2022-08-07T22:08:24.762Z,23.90
2022-08-07T22:10:59.082Z,23.80
2022-08-07T22:13:50.906Z,23.70
2022-08-07T22:16:44.258Z,23.70
2022-08-07T22:19:23.771Z,23.60
2022-08-07T22:22:17.645Z,23.60
2022-08-07T22:24:57.895Z,23.50
2022-08-07T22:27:34.235Z,23.40
2022-08-07T22:30:26.366Z,23.40
2022-08-07T22:33:04.936Z,23.40
2022-08-07T22:35:43.104Z,23.30
2022-08-07T22:38:24.156Z,23.20
2022-08-07T22:40:59.988Z,23.10
2022-08-07T22:43:35.697Z,23.00
2022-08-07T22:47:02.507Z,23.00
2022-08-07T22:49:39.467Z,23.00
2022-08-07T22:52:45.915Z,22.90
2022-08-07T22:55:43.950Z,22.90
2022-08-07T22:58:42.830Z,22.90
2022-08-07T23:01:54.012Z,22.90
2022-08-07T23:04:58.630Z,22.90
2022-08-07T23:07:47.913Z,23.00
2022-08-07T23:10:38.129Z,23.00
2022-08-07T23:13:29.034Z,23.00
2022-08-07T23:16:46.888Z,22.90
2022-08-07T23:19:16.661Z,22.80
2022-08-07T23:21:57.391Z,22.70
2022-08-07T23:24:45.607Z,22.50
2022-08-07T23:27:34.500Z,22.40
2022-08-07T23:30:37.498Z,22.20
2022-08-07T23:34:36.922Z,22.10
2022-08-07T23:36:17.467Z,21.90
2022-08-07T23:39:08.341Z,21.80
2022-08-07T23:42:04.694Z,21.70
2022-08-07T23:44:54.066Z,21.60
2022-08-07T23:47:46.588Z,21.50
2022-08-07T23:50:30.263Z,21.40
2022-08-07T23:53:15.317Z,21.30
2022-08-07T23:55:57.016Z,21.30
2022-08-07T23:58:38.795Z,21.30
